sensor_id;sensor_type;location;lat;lon;timestamp;P1;durP1;ratioP1;P2;durP2;ratioP2
6902;SDS011;20232;49.408;8.702;2024-03-02T05:01:17;22.77;;;16.77;;
6902;SDS011;20232;49.408;8.702;2024-03-02T05:03:42;24.23;;;16.67;;
6902;SDS011;20232;49.408;8.702;2024-03-02T05:06:08;23.05;;;16.40;;
6902;SDS011;20232;49.408;8.702;2024-03-02T05:08:33;23.80;;;16.80;;
6902;SDS011;20232;49.408;8.702;2024-03-02T05:10:59;21.70;;;16.70;;
6902;SDS011;20232;49.408;8.702;2024-03-02T05:13:44;21.05;;;15.40;;
6902;SDS011;20232;49.408;8.702;2024-03-02T05:16:10;22.23;;;15.80;;
6902;SDS011;20232;49.408;8.702;2024-03-02T05:18:36;20.90;;;15.23;;
6902;SDS011;20232;49.408;8.702;2024-03-02T05:21:03;22.42;;;16.40;;
6902;SDS011;20232;49.408;8.702;2024-03-02T05:23:28;23.70;;;16.85;;
6902;SDS011;20232;49.408;8.702;2024-03-02T05:25:54;25.90;;;17.93;;
6902;SDS011;20232;49.408;8.702;2024-03-02T05:28:19;23.43;;;16.73;;
6902;SDS011;20232;49.408;8.702;2024-03-02T05:30:44;24.20;;;17.40;;
6902;SDS011;20232;49.408;8.702;2024-03-02T05:33:10;23.30;;;16.37;;
6902;SDS011;20232;49.408;8.702;2024-03-02T05:35:35;24.50;;;16.45;;
6902;SDS011;20232;49.408;8.702;2024-03-02T05:38:01;21.58;;;15.63;;
6902;SDS011;20232;49.408;8.702;2024-03-02T05:40:26;22.17;;;16.27;;
6902;SDS011;20232;49.408;8.702;2024-03-02T05:42:51;24.57;;;16.50;;
6902;SDS011;20232;49.408;8.702;2024-03-02T05:45:17;25.07;;;17.60;;
6902;SDS011;20232;49.408;8.702;2024-03-02T05:47:42;23.20;;;17.13;;
6902;SDS011;20232;49.408;8.702;2024-03-02T05:50:08;23.38;;;16.42;;
6902;SDS011;20232;49.408;8.702;2024-03-02T05:52:33;23.63;;;16.77;;
6902;SDS011;20232;49.408;8.702;2024-03-02T05:54:59;23.77;;;16.60;;
6902;SDS011;20232;49.408;8.702;2024-03-02T05:57:24;23.30;;;16.48;;
6902;SDS011;20232;49.408;8.702;2024-03-02T06:00:08;23.27;;;16.33;;
6902;SDS011;20232;49.408;8.702;2024-03-02T06:02:40;23.52;;;16.40;;
6902;SDS011;20232;49.408;8.702;2024-03-02T06:05:06;23.98;;;16.48;;
6902;SDS011;20232;49.408;8.702;2024-03-02T06:07:32;23.30;;;17.27;;
6902;SDS011;20232;49.408;8.702;2024-03-02T06:09:58;22.95;;;16.70;;
6902;SDS011;20232;49.408;8.702;2024-03-02T06:12:23;22.93;;;17.00;;
6902;SDS011;20232;49.408;8.702;2024-03-02T06:14:49;21.73;;;16.15;;
6902;SDS011;20232;49.408;8.702;2024-03-02T06:17:14;25.43;;;16.60;;
6902;SDS011;20232;49.408;8.702;2024-03-02T06:19:40;23.77;;;16.90;;
6902;SDS011;20232;49.408;8.702;2024-03-02T06:22:05;22.10;;;15.82;;
6902;SDS011;20232;49.408;8.702;2024-03-02T06:24:31;21.73;;;16.00;;
6902;SDS011;20232;49.408;8.702;2024-03-02T06:26:56;23.47;;;16.27;;
6902;SDS011;20232;49.408;8.702;2024-03-02T06:29:21;23.27;;;15.97;;
6902;SDS011;20232;49.408;8.702;2024-03-02T06:31:47;23.03;;;15.90;;
6902;SDS011;20232;49.408;8.702;2024-03-02T06:34:12;22.77;;;16.30;;
6902;SDS011;20232;49.408;8.702;2024-03-02T06:36:38;22.77;;;15.95;;
6902;SDS011;20232;49.408;8.702;2024-03-02T06:39:05;23.55;;;16.35;;
6902;SDS011;20232;49.408;8.702;2024-03-02T06:41:30;22.57;;;16.50;;
6902;SDS011;20232;49.408;8.702;2024-03-02T06:43:56;22.73;;;16.13;;
6902;SDS011;20232;49.408;8.702;2024-03-02T06:46:25;20.37;;;15.37;;
6902;SDS011;20232;49.408;8.702;2024-03-02T06:48:50;18.30;;;12.43;;
6902;SDS011;20232;49.408;8.702;2024-03-02T06:51:16;23.85;;;16.20;;
6902;SDS011;20232;49.408;8.702;2024-03-02T06:53:41;23.40;;;17.13;;
6902;SDS011;20232;49.408;8.702;2024-03-02T06:56:07;25.10;;;17.10;;
6902;SDS011;20232;49.408;8.702;2024-03-02T06:58:34;22.05;;;16.25;;
6902;SDS011;20232;49.408;8.702;2024-03-02T07:00:59;21.43;;;16.00;;
6902;SDS011;20232;49.408;8.702;2024-03-02T07:03:27;21.60;;;15.63;;
6902;SDS011;20232;49.408;8.702;2024-03-02T07:05:53;21.55;;;15.32;;
6902;SDS011;20232;49.408;8.702;2024-03-02T07:08:19;19.40;;;14.40;;
6902;SDS011;20232;49.408;8.702;2024-03-02T07:10:44;19.60;;;14.07;;
6902;SDS011;20232;49.408;8.702;2024-03-02T07:13:09;21.30;;;14.67;;
6902;SDS011;20232;49.408;8.702;2024-03-02T07:15:35;19.00;;;14.03;;
6902;SDS011;20232;49.408;8.702;2024-03-02T07:18:30;20.73;;;15.55;;
6902;SDS011;20232;49.408;8.702;2024-03-02T07:20:56;22.13;;;15.93;;
6902;SDS011;20232;49.408;8.702;2024-03-02T07:23:24;22.20;;;15.60;;
6902;SDS011;20232;49.408;8.702;2024-03-02T07:25:52;22.43;;;15.60;;
6902;SDS011;20232;49.408;8.702;2024-03-02T07:28:19;22.70;;;16.08;;
6902;SDS011;20232;49.408;8.702;2024-03-02T07:30:45;21.73;;;15.27;;
6902;SDS011;20232;49.408;8.702;2024-03-02T07:33:11;20.52;;;15.07;;
6902;SDS011;20232;49.408;8.702;2024-03-02T07:35:36;22.77;;;15.40;;
6902;SDS011;20232;49.408;8.702;2024-03-02T07:38:01;23.10;;;15.57;;
6902;SDS011;20232;49.408;8.702;2024-03-02T07:40:27;23.40;;;15.93;;
6902;SDS011;20232;49.408;8.702;2024-03-02T07:42:52;21.70;;;15.50;;
6902;SDS011;20232;49.408;8.702;2024-03-02T07:45:18;20.05;;;14.48;;
6902;SDS011;20232;49.408;8.702;2024-03-02T07:47:43;18.63;;;14.33;;
6902;SDS011;20232;49.408;8.702;2024-03-02T07:50:09;19.80;;;14.30;;
6902;SDS011;20232;49.408;8.702;2024-03-02T07:52:35;18.83;;;14.53;;
6902;SDS011;20232;49.408;8.702;2024-03-02T07:55:00;19.27;;;14.53;;
6902;SDS011;20232;49.408;8.702;2024-03-02T07:57:26;19.63;;;14.70;;
6902;SDS011;20232;49.408;8.702;2024-03-02T07:59:52;18.73;;;13.85;;
6902;SDS011;20232;49.408;8.702;2024-03-02T08:02:17;18.50;;;14.23;;
6902;SDS011;20232;49.408;8.702;2024-03-02T08:04:42;22.10;;;16.70;;
6902;SDS011;20232;49.408;8.702;2024-03-02T08:07:08;25.60;;;16.67;;
6902;SDS011;20232;49.408;8.702;2024-03-02T08:09:34;27.15;;;18.05;;
6902;SDS011;20232;49.408;8.702;2024-03-02T08:12:00;20.38;;;14.68;;
6902;SDS011;20232;49.408;8.702;2024-03-02T08:14:25;19.50;;;14.80;;
6902;SDS011;20232;49.408;8.702;2024-03-02T08:16:50;16.20;;;12.27;;
6902;SDS011;20232;49.408;8.702;2024-03-02T08:19:16;16.60;;;12.77;;
6902;SDS011;20232;49.408;8.702;2024-03-02T08:21:42;15.48;;;12.40;;
6902;SDS011;20232;49.408;8.702;2024-03-02T08:24:08;15.10;;;12.00;;
6902;SDS011;20232;49.408;8.702;2024-03-02T08:26:33;14.98;;;11.80;;
6902;SDS011;20232;49.408;8.702;2024-03-02T08:28:59;14.97;;;11.93;;
6902;SDS011;20232;49.408;8.702;2024-03-02T08:31:26;14.32;;;11.43;;
6902;SDS011;20232;49.408;8.702;2024-03-02T08:33:52;13.32;;;11.05;;
6902;SDS011;20232;49.408;8.702;2024-03-02T08:36:17;13.10;;;10.90;;
6902;SDS011;20232;49.408;8.702;2024-03-02T08:38:43;13.57;;;10.90;;
6902;SDS011;20232;49.408;8.702;2024-03-02T08:41:09;16.33;;;10.55;;
6902;SDS011;20232;49.408;8.702;2024-03-02T08:43:34;12.53;;;10.37;;
6902;SDS011;20232;49.408;8.702;2024-03-02T08:46:00;11.63;;;9.68;;
6902;SDS011;20232;49.408;8.702;2024-03-02T08:48:25;12.68;;;10.18;;
6902;SDS011;20232;49.408;8.702;2024-03-02T08:50:51;12.63;;;10.17;;
6902;SDS011;20232;49.408;8.702;2024-03-02T08:53:16;12.77;;;10.40;;
6902;SDS011;20232;49.408;8.702;2024-03-02T08:55:44;12.83;;;9.50;;
6902;SDS011;20232;49.408;8.702;2024-03-02T08:58:12;12.30;;;9.03;;
6902;SDS011;20232;49.408;8.702;2024-03-02T09:00:38;12.13;;;8.90;;
6902;SDS011;20232;49.408;8.702;2024-03-02T09:05:29;11.13;;;8.13;;
6902;SDS011;20232;49.408;8.702;2024-03-02T09:07:54;10.30;;;8.27;;
6902;SDS011;20232;49.408;8.702;2024-03-02T09:10:20;13.40;;;9.03;;
6902;SDS011;20232;49.408;8.702;2024-03-02T09:12:46;12.45;;;9.55;;
6902;SDS011;20232;49.408;8.702;2024-03-02T09:15:11;11.57;;;8.23;;
6902;SDS011;20232;49.408;8.702;2024-03-02T09:17:37;11.40;;;8.83;;
6902;SDS011;20232;49.408;8.702;2024-03-02T09:20:02;9.97;;;8.60;;
6902;SDS011;20232;49.408;8.702;2024-03-02T09:39:31;8.00;;;5.90;;
6902;SDS011;20232;49.408;8.702;2024-03-02T09:41:56;7.13;;;6.23;;
6902;SDS011;20232;49.408;8.702;2024-03-02T09:44:23;7.15;;;6.32;;
6902;SDS011;20232;49.408;8.702;2024-03-02T09:46:50;7.38;;;6.00;;
6902;SDS011;20232;49.408;8.702;2024-03-02T09:51:41;6.47;;;5.40;;
6902;SDS011;20232;49.408;8.702;2024-03-02T09:54:12;6.83;;;5.80;;
6902;SDS011;20232;49.408;8.702;2024-03-02T09:56:37;6.73;;;4.90;;
6902;SDS011;20232;49.408;8.702;2024-03-02T09:59:04;5.47;;;4.73;;
6902;SDS011;20232;49.408;8.702;2024-03-02T10:01:30;5.67;;;4.90;;
6902;SDS011;20232;49.408;8.702;2024-03-02T10:03:57;5.50;;;4.73;;
6902;SDS011;20232;49.408;8.702;2024-03-02T10:06:25;5.30;;;4.80;;
6902;SDS011;20232;49.408;8.702;2024-03-02T10:08:51;5.17;;;4.40;;
6902;SDS011;20232;49.408;8.702;2024-03-02T10:11:38;4.93;;;4.40;;
6902;SDS011;20232;49.408;8.702;2024-03-02T10:14:04;4.80;;;4.27;;
6902;SDS011;20232;49.408;8.702;2024-03-02T10:16:40;4.73;;;4.20;;
6902;SDS011;20232;49.408;8.702;2024-03-02T10:19:16;4.30;;;3.90;;
6902;SDS011;20232;49.408;8.702;2024-03-02T10:21:43;4.67;;;4.13;;
6902;SDS011;20232;49.408;8.702;2024-03-02T10:24:16;5.33;;;3.97;;
6902;SDS011;20232;49.408;8.702;2024-03-02T10:26:44;5.50;;;4.07;;
6902;SDS011;20232;49.408;8.702;2024-03-02T10:29:10;6.93;;;4.00;;
6902;SDS011;20232;49.408;8.702;2024-03-02T10:31:39;5.50;;;3.63;;
6902;SDS011;20232;49.408;8.702;2024-03-02T10:34:06;3.97;;;3.57;;
6902;SDS011;20232;49.408;8.702;2024-03-02T10:36:36;4.47;;;3.60;;
6902;SDS011;20232;49.408;8.702;2024-03-02T10:39:03;3.87;;;3.37;;
6902;SDS011;20232;49.408;8.702;2024-03-02T10:41:29;4.40;;;3.50;;
6902;SDS011;20232;49.408;8.702;2024-03-02T10:43:57;4.17;;;3.47;;
6902;SDS011;20232;49.408;8.702;2024-03-02T10:46:27;4.67;;;3.80;;
6902;SDS011;20232;49.408;8.702;2024-03-02T10:48:54;6.33;;;3.80;;
6902;SDS011;20232;49.408;8.702;2024-03-02T10:51:20;5.53;;;3.67;;
6902;SDS011;20232;49.408;8.702;2024-03-02T10:53:46;3.83;;;3.43;;
6902;SDS011;20232;49.408;8.702;2024-03-02T10:56:11;3.43;;;3.13;;
6902;SDS011;20232;49.408;8.702;2024-03-02T10:58:41;3.67;;;3.10;;
6902;SDS011;20232;49.408;8.702;2024-03-02T11:01:07;4.57;;;3.53;;
6902;SDS011;20232;49.408;8.702;2024-03-02T11:03:35;3.80;;;3.40;;
6902;SDS011;20232;49.408;8.702;2024-03-02T11:06:03;4.47;;;3.90;;
6902;SDS011;20232;49.408;8.702;2024-03-02T11:08:32;4.93;;;3.85;;
6902;SDS011;20232;49.408;8.702;2024-03-02T11:11:02;4.10;;;3.70;;
6902;SDS011;20232;49.408;8.702;2024-03-02T11:13:32;3.83;;;3.35;;
6902;SDS011;20232;49.408;8.702;2024-03-02T11:18:57;4.32;;;3.60;;
6902;SDS011;20232;49.408;8.702;2024-03-02T11:21:24;4.07;;;3.42;;
6902;SDS011;20232;49.408;8.702;2024-03-02T11:23:49;4.47;;;3.47;;
6902;SDS011;20232;49.408;8.702;2024-03-02T11:26:21;3.70;;;3.30;;
6902;SDS011;20232;49.408;8.702;2024-03-02T11:28:50;4.20;;;3.40;;
6902;SDS011;20232;49.408;8.702;2024-03-02T11:31:15;4.30;;;3.10;;
6902;SDS011;20232;49.408;8.702;2024-03-02T11:33:40;5.90;;;3.57;;
6902;SDS011;20232;49.408;8.702;2024-03-02T11:36:06;4.50;;;3.50;;
6902;SDS011;20232;49.408;8.702;2024-03-02T11:38:33;4.10;;;3.50;;
6902;SDS011;20232;49.408;8.702;2024-03-02T11:40:59;4.10;;;3.70;;
6902;SDS011;20232;49.408;8.702;2024-03-02T11:43:27;3.70;;;3.40;;
6902;SDS011;20232;49.408;8.702;2024-03-02T11:45:59;3.63;;;3.10;;
6902;SDS011;20232;49.408;8.702;2024-03-02T11:48:25;3.50;;;3.00;;
6902;SDS011;20232;49.408;8.702;2024-03-02T11:50:51;3.60;;;3.30;;
6902;SDS011;20232;49.408;8.702;2024-03-02T11:53:18;3.70;;;2.92;;
6902;SDS011;20232;49.408;8.702;2024-03-02T11:55:44;3.58;;;3.00;;
6902;SDS011;20232;49.408;8.702;2024-03-02T11:58:13;3.22;;;2.92;;
6902;SDS011;20232;49.408;8.702;2024-03-02T12:00:40;3.10;;;2.80;;
6902;SDS011;20232;49.408;8.702;2024-03-02T12:03:06;2.93;;;2.50;;
6902;SDS011;20232;49.408;8.702;2024-03-02T12:05:33;2.97;;;2.67;;
6902;SDS011;20232;49.408;8.702;2024-03-02T12:08:00;5.60;;;3.63;;
6902;SDS011;20232;49.408;8.702;2024-03-02T12:10:27;3.75;;;3.00;;
6902;SDS011;20232;49.408;8.702;2024-03-02T12:12:59;6.63;;;4.00;;
6902;SDS011;20232;49.408;8.702;2024-03-02T12:15:26;10.02;;;4.63;;
6902;SDS011;20232;49.408;8.702;2024-03-02T12:17:55;33.00;;;12.82;;
6902;SDS011;20232;49.408;8.702;2024-03-02T12:20:22;14.35;;;6.10;;
6902;SDS011;20232;49.408;8.702;2024-03-02T12:22:49;17.35;;;7.15;;
6902;SDS011;20232;49.408;8.702;2024-03-02T12:25:17;3.92;;;2.72;;
6902;SDS011;20232;49.408;8.702;2024-03-02T12:27:50;8.48;;;4.38;;
6902;SDS011;20232;49.408;8.702;2024-03-02T12:30:17;3.40;;;2.60;;
6902;SDS011;20232;49.408;8.702;2024-03-02T12:32:46;4.25;;;2.70;;
6902;SDS011;20232;49.408;8.702;2024-03-02T12:35:12;4.53;;;2.70;;
6902;SDS011;20232;49.408;8.702;2024-03-02T12:37:42;4.90;;;3.10;;
6902;SDS011;20232;49.408;8.702;2024-03-02T12:40:12;2.28;;;1.90;;
6902;SDS011;20232;49.408;8.702;2024-03-02T12:42:38;2.80;;;2.33;;
6902;SDS011;20232;49.408;8.702;2024-03-02T12:45:09;4.22;;;2.13;;
6902;SDS011;20232;49.408;8.702;2024-03-02T12:47:35;2.20;;;2.00;;
6902;SDS011;20232;49.408;8.702;2024-03-02T12:50:01;2.30;;;2.10;;
6902;SDS011;20232;49.408;8.702;2024-03-02T12:52:26;2.78;;;2.20;;
6902;SDS011;20232;49.408;8.702;2024-03-02T12:54:52;2.58;;;1.98;;
6902;SDS011;20232;49.408;8.702;2024-03-02T12:57:24;2.90;;;2.20;;
6902;SDS011;20232;49.408;8.702;2024-03-02T12:59:50;2.30;;;2.10;;
6902;SDS011;20232;49.408;8.702;2024-03-02T13:02:18;2.97;;;2.23;;
6902;SDS011;20232;49.408;8.702;2024-03-02T13:04:44;2.28;;;2.08;;
6902;SDS011;20232;49.408;8.702;2024-03-02T13:07:17;2.20;;;2.00;;
6902;SDS011;20232;49.408;8.702;2024-03-02T13:09:44;2.28;;;2.03;;
6902;SDS011;20232;49.408;8.702;2024-03-02T13:12:11;2.25;;;2.05;;
6902;SDS011;20232;49.408;8.702;2024-03-02T13:14:37;2.30;;;2.08;;
6902;SDS011;20232;49.408;8.702;2024-03-02T13:17:03;2.63;;;1.90;;
6902;SDS011;20232;49.408;8.702;2024-03-02T13:19:31;2.40;;;2.17;;
6902;SDS011;20232;49.408;8.702;2024-03-02T13:21:57;1.70;;;1.60;;
6902;SDS011;20232;49.408;8.702;2024-03-02T13:24:23;2.30;;;2.10;;
6902;SDS011;20232;49.408;8.702;2024-03-02T13:26:53;2.33;;;2.13;;
6902;SDS011;20232;49.408;8.702;2024-03-02T13:29:21;2.80;;;2.13;;
6902;SDS011;20232;49.408;8.702;2024-03-02T13:31:46;2.00;;;1.90;;
6902;SDS011;20232;49.408;8.702;2024-03-02T13:34:12;2.60;;;1.80;;
6902;SDS011;20232;49.408;8.702;2024-03-02T13:36:37;2.27;;;1.50;;
6902;SDS011;20232;49.408;8.702;2024-03-02T13:39:04;2.33;;;1.77;;
6902;SDS011;20232;49.408;8.702;2024-03-02T13:41:31;2.17;;;1.90;;
6902;SDS011;20232;49.408;8.702;2024-03-02T13:43:56;1.50;;;1.40;;
6902;SDS011;20232;49.408;8.702;2024-03-02T13:46:22;1.67;;;1.57;;
6902;SDS011;20232;49.408;8.702;2024-03-02T13:48:47;1.83;;;1.73;;
6902;SDS011;20232;49.408;8.702;2024-03-02T13:51:13;1.73;;;1.50;;
6902;SDS011;20232;49.408;8.702;2024-03-02T13:53:38;1.50;;;1.40;;
6902;SDS011;20232;49.408;8.702;2024-03-02T13:56:05;2.23;;;1.40;;
6902;SDS011;20232;49.408;8.702;2024-03-02T13:58:30;1.40;;;1.30;;
6902;SDS011;20232;49.408;8.702;2024-03-02T14:00:56;1.80;;;1.70;;
6902;SDS011;20232;49.408;8.702;2024-03-02T14:03:22;1.40;;;1.30;;
6902;SDS011;20232;49.408;8.702;2024-03-02T14:05:47;2.07;;;1.40;;
6902;SDS011;20232;49.408;8.702;2024-03-02T14:08:15;1.80;;;1.70;;
6902;SDS011;20232;49.408;8.702;2024-03-02T14:10:41;1.77;;;1.40;;
6902;SDS011;20232;49.408;8.702;2024-03-02T14:13:07;1.23;;;1.13;;
6902;SDS011;20232;49.408;8.702;2024-03-02T14:15:33;1.33;;;1.23;;
6902;SDS011;20232;49.408;8.702;2024-03-02T14:17:58;1.50;;;1.40;;
6902;SDS011;20232;49.408;8.702;2024-03-02T14:20:24;1.30;;;1.20;;
6902;SDS011;20232;49.408;8.702;2024-03-02T14:22:49;1.40;;;1.30;;
6902;SDS011;20232;49.408;8.702;2024-03-02T14:25:14;1.90;;;1.80;;
6902;SDS011;20232;49.408;8.702;2024-03-02T14:27:40;2.27;;;1.63;;
6902;SDS011;20232;49.408;8.702;2024-03-02T14:30:05;1.30;;;1.20;;
6902;SDS011;20232;49.408;8.702;2024-03-02T14:32:33;2.17;;;1.57;;
6902;SDS011;20232;49.408;8.702;2024-03-02T14:34:58;2.77;;;1.40;;
6902;SDS011;20232;49.408;8.702;2024-03-02T14:37:24;1.70;;;1.60;;
6902;SDS011;20232;49.408;8.702;2024-03-02T14:39:49;1.80;;;1.30;;
6902;SDS011;20232;49.408;8.702;2024-03-02T14:42:16;3.30;;;1.73;;
6902;SDS011;20232;49.408;8.702;2024-03-02T14:44:41;1.60;;;1.47;;
6902;SDS011;20232;49.408;8.702;2024-03-02T14:47:07;1.17;;;1.17;;
6902;SDS011;20232;49.408;8.702;2024-03-02T14:49:32;1.60;;;1.40;;
6902;SDS011;20232;49.408;8.702;2024-03-02T14:52:01;1.53;;;1.30;;
6902;SDS011;20232;49.408;8.702;2024-03-02T14:54:26;1.50;;;1.40;;
6902;SDS011;20232;49.408;8.702;2024-03-02T14:56:51;1.50;;;1.30;;
6902;SDS011;20232;49.408;8.702;2024-03-02T14:59:17;1.87;;;1.40;;
6902;SDS011;20232;49.408;8.702;2024-03-02T15:01:43;1.40;;;1.30;;
6902;SDS011;20232;49.408;8.702;2024-03-02T15:04:08;2.40;;;1.60;;
6902;SDS011;20232;49.408;8.702;2024-03-02T15:06:35;2.37;;;1.60;;
6902;SDS011;20232;49.408;8.702;2024-03-02T15:09:00;1.83;;;1.73;;
6902;SDS011;20232;49.408;8.702;2024-03-02T15:11:26;1.50;;;1.40;;
6902;SDS011;20232;49.408;8.702;2024-03-02T15:13:52;2.10;;;1.50;;
6902;SDS011;20232;49.408;8.702;2024-03-02T15:16:17;2.30;;;1.53;;
6902;SDS011;20232;49.408;8.702;2024-03-02T15:18:43;1.47;;;1.27;;
6902;SDS011;20232;49.408;8.702;2024-03-02T15:21:08;1.50;;;1.40;;
6902;SDS011;20232;49.408;8.702;2024-03-02T15:23:34;2.67;;;1.30;;
6902;SDS011;20232;49.408;8.702;2024-03-02T15:25:59;1.23;;;1.23;;
6902;SDS011;20232;49.408;8.702;2024-03-02T15:28:25;1.53;;;1.43;;
6902;SDS011;20232;49.408;8.702;2024-03-02T15:30:50;2.30;;;1.60;;
6902;SDS011;20232;49.408;8.702;2024-03-02T15:33:16;2.13;;;1.50;;
6902;SDS011;20232;49.408;8.702;2024-03-02T15:35:43;1.57;;;1.40;;
6902;SDS011;20232;49.408;8.702;2024-03-02T15:38:08;1.10;;;1.10;;
6902;SDS011;20232;49.408;8.702;2024-03-02T15:40:37;1.60;;;1.50;;
6902;SDS011;20232;49.408;8.702;2024-03-02T15:43:02;2.80;;;1.70;;
6902;SDS011;20232;49.408;8.702;2024-03-02T15:45:28;3.50;;;1.37;;
6902;SDS011;20232;49.408;8.702;2024-03-02T15:47:59;2.20;;;1.80;;
6902;SDS011;20232;49.408;8.702;2024-03-02T15:50:25;1.60;;;1.50;;
6902;SDS011;20232;49.408;8.702;2024-03-02T15:52:51;1.60;;;1.40;;
6902;SDS011;20232;49.408;8.702;2024-03-02T15:55:17;1.67;;;1.57;;
6902;SDS011;20232;49.408;8.702;2024-03-02T15:57:43;1.40;;;1.30;;
6902;SDS011;20232;49.408;8.702;2024-03-02T16:00:08;1.40;;;1.30;;
6902;SDS011;20232;49.408;8.702;2024-03-02T16:02:37;1.50;;;1.40;;
6902;SDS011;20232;49.408;8.702;2024-03-02T16:05:03;2.20;;;1.40;;
6902;SDS011;20232;49.408;8.702;2024-03-02T16:07:29;3.20;;;1.40;;
6902;SDS011;20232;49.408;8.702;2024-03-02T16:09:54;1.57;;;1.30;;
6902;SDS011;20232;49.408;8.702;2024-03-02T16:12:20;1.90;;;1.60;;
6902;SDS011;20232;49.408;8.702;2024-03-02T16:14:46;2.87;;;1.40;;
6902;SDS011;20232;49.408;8.702;2024-03-02T16:17:12;1.40;;;1.30;;
6902;SDS011;20232;49.408;8.702;2024-03-02T16:19:38;1.50;;;1.40;;
6902;SDS011;20232;49.408;8.702;2024-03-02T16:22:05;1.67;;;1.27;;
6902;SDS011;20232;49.408;8.702;2024-03-02T16:24:33;1.50;;;1.40;;
6902;SDS011;20232;49.408;8.702;2024-03-02T16:26:58;1.67;;;1.33;;
6902;SDS011;20232;49.408;8.702;2024-03-02T16:29:24;1.50;;;1.40;;
6902;SDS011;20232;49.408;8.702;2024-03-02T16:31:49;1.40;;;1.30;;
6902;SDS011;20232;49.408;8.702;2024-03-02T16:34:15;1.50;;;1.40;;
6902;SDS011;20232;49.408;8.702;2024-03-02T16:36:40;1.77;;;1.50;;
6902;SDS011;20232;49.408;8.702;2024-03-02T16:39:07;1.50;;;1.40;;
6902;SDS011;20232;49.408;8.702;2024-03-02T16:41:34;3.43;;;1.53;;
6902;SDS011;20232;49.408;8.702;2024-03-02T16:43:59;1.87;;;1.50;;
6902;SDS011;20232;49.408;8.702;2024-03-02T16:46:24;2.33;;;1.50;;
6902;SDS011;20232;49.408;8.702;2024-03-02T16:48:50;1.30;;;1.20;;
6902;SDS011;20232;49.408;8.702;2024-03-02T16:51:15;2.43;;;1.50;;
6902;SDS011;20232;49.408;8.702;2024-03-02T16:53:41;2.43;;;1.50;;
6902;SDS011;20232;49.408;8.702;2024-03-02T16:56:06;8.87;;;4.93;;
6902;SDS011;20232;49.408;8.702;2024-03-02T16:58:32;9.77;;;5.43;;
6902;SDS011;20232;49.408;8.702;2024-03-02T17:00:57;4.23;;;2.47;;
6902;SDS011;20232;49.408;8.702;2024-03-02T17:03:22;2.83;;;2.53;;
6902;SDS011;20232;49.408;8.702;2024-03-02T17:05:48;2.40;;;2.10;;
6902;SDS011;20232;49.408;8.702;2024-03-02T17:08:13;1.40;;;1.30;;
6902;SDS011;20232;49.408;8.702;2024-03-02T17:10:39;1.30;;;1.30;;
6902;SDS011;20232;49.408;8.702;2024-03-02T17:13:05;2.83;;;1.60;;
6902;SDS011;20232;49.408;8.702;2024-03-02T17:15:30;1.50;;;1.40;;
6902;SDS011;20232;49.408;8.702;2024-03-02T17:17:56;2.03;;;1.80;;
6902;SDS011;20232;49.408;8.702;2024-03-02T17:20:21;4.03;;;1.77;;
6902;SDS011;20232;49.408;8.702;2024-03-02T17:22:47;1.80;;;1.70;;
6902;SDS011;20232;49.408;8.702;2024-03-02T17:25:12;2.20;;;1.77;;
6902;SDS011;20232;49.408;8.702;2024-03-02T17:27:37;2.20;;;2.00;;
6902;SDS011;20232;49.408;8.702;2024-03-02T17:30:03;2.00;;;1.77;;
6902;SDS011;20232;49.408;8.702;2024-03-02T17:32:29;2.13;;;1.97;;
6902;SDS011;20232;49.408;8.702;2024-03-02T17:34:55;3.27;;;1.93;;
6902;SDS011;20232;49.408;8.702;2024-03-02T17:37:21;2.73;;;1.90;;
6902;SDS011;20232;49.408;8.702;2024-03-02T17:39:46;2.07;;;1.90;;
6902;SDS011;20232;49.408;8.702;2024-03-02T17:42:12;2.27;;;2.07;;
6902;SDS011;20232;49.408;8.702;2024-03-02T17:44:38;1.80;;;1.70;;
6902;SDS011;20232;49.408;8.702;2024-03-02T17:47:03;3.93;;;2.40;;
6902;SDS011;20232;49.408;8.702;2024-03-02T17:49:29;2.53;;;1.90;;
6902;SDS011;20232;49.408;8.702;2024-03-02T17:51:54;3.50;;;2.40;;
6902;SDS011;20232;49.408;8.702;2024-03-02T17:54:20;3.90;;;2.60;;
6902;SDS011;20232;49.408;8.702;2024-03-02T17:56:45;2.20;;;1.93;;
6902;SDS011;20232;49.408;8.702;2024-03-02T17:59:11;2.17;;;1.97;;
6902;SDS011;20232;49.408;8.702;2024-03-02T18:01:36;2.67;;;2.20;;
6902;SDS011;20232;49.408;8.702;2024-03-02T18:04:02;2.23;;;1.80;;
6902;SDS011;20232;49.408;8.702;2024-03-02T18:06:27;2.00;;;1.90;;
6902;SDS011;20232;49.408;8.702;2024-03-02T18:08:52;3.07;;;1.97;;
6902;SDS011;20232;49.408;8.702;2024-03-02T18:11:18;2.30;;;2.10;;
6902;SDS011;20232;49.408;8.702;2024-03-02T18:13:44;2.17;;;1.97;;
6902;SDS011;20232;49.408;8.702;2024-03-02T18:16:13;2.73;;;1.87;;
6902;SDS011;20232;49.408;8.702;2024-03-02T18:18:39;2.30;;;2.07;;
6902;SDS011;20232;49.408;8.702;2024-03-02T18:21:05;2.67;;;2.20;;
6902;SDS011;20232;49.408;8.702;2024-03-02T18:23:30;3.00;;;2.50;;
6902;SDS011;20232;49.408;8.702;2024-03-02T18:25:56;2.67;;;2.30;;
6902;SDS011;20232;49.408;8.702;2024-03-02T18:28:21;2.30;;;2.10;;
6902;SDS011;20232;49.408;8.702;2024-03-02T18:30:47;2.00;;;1.90;;
6902;SDS011;20232;49.408;8.702;2024-03-02T18:33:12;3.17;;;2.00;;
6902;SDS011;20232;49.408;8.702;2024-03-02T18:35:37;2.53;;;2.33;;
6902;SDS011;20232;49.408;8.702;2024-03-02T18:38:03;3.23;;;2.53;;
6902;SDS011;20232;49.408;8.702;2024-03-02T18:40:29;2.83;;;2.40;;
6902;SDS011;20232;49.408;8.702;2024-03-02T18:42:54;2.83;;;2.60;;
6902;SDS011;20232;49.408;8.702;2024-03-02T18:45:20;3.40;;;3.10;;
6902;SDS011;20232;49.408;8.702;2024-03-02T18:47:45;3.63;;;2.70;;
6902;SDS011;20232;49.408;8.702;2024-03-02T18:50:10;4.73;;;3.83;;
6902;SDS011;20232;49.408;8.702;2024-03-02T18:52:36;4.30;;;3.83;;
6902;SDS011;20232;49.408;8.702;2024-03-02T18:55:02;5.05;;;3.70;;
6902;SDS011;20232;49.408;8.702;2024-03-02T18:57:29;4.00;;;3.60;;
6902;SDS011;20232;49.408;8.702;2024-03-02T18:59:57;4.77;;;3.70;;
6902;SDS011;20232;49.408;8.702;2024-03-02T19:02:22;5.80;;;4.30;;
6902;SDS011;20232;49.408;8.702;2024-03-02T19:04:49;7.33;;;4.40;;
6902;SDS011;20232;49.408;8.702;2024-03-02T19:07:15;5.77;;;4.63;;
6902;SDS011;20232;49.408;8.702;2024-03-02T19:09:40;7.83;;;4.80;;
6902;SDS011;20232;49.408;8.702;2024-03-02T19:12:06;6.93;;;5.07;;
6902;SDS011;20232;49.408;8.702;2024-03-02T19:14:31;7.60;;;5.37;;
6902;SDS011;20232;49.408;8.702;2024-03-02T19:16:57;7.97;;;6.03;;
6902;SDS011;20232;49.408;8.702;2024-03-02T19:19:23;8.87;;;6.80;;
6902;SDS011;20232;49.408;8.702;2024-03-02T19:21:48;8.87;;;6.57;;
6902;SDS011;20232;49.408;8.702;2024-03-02T19:24:14;8.53;;;6.50;;
6902;SDS011;20232;49.408;8.702;2024-03-02T19:26:39;9.47;;;6.27;;
6902;SDS011;20232;49.408;8.702;2024-03-02T19:29:04;8.57;;;6.27;;
6902;SDS011;20232;49.408;8.702;2024-03-02T19:31:30;7.77;;;5.63;;
6902;SDS011;20232;49.408;8.702;2024-03-02T19:33:55;7.80;;;5.63;;
6902;SDS011;20232;49.408;8.702;2024-03-02T19:36:21;8.20;;;6.13;;
6902;SDS011;20232;49.408;8.702;2024-03-02T19:38:47;7.93;;;6.17;;
6902;SDS011;20232;49.408;8.702;2024-03-02T19:41:13;8.40;;;6.40;;
6902;SDS011;20232;49.408;8.702;2024-03-02T19:43:38;8.50;;;6.53;;
6902;SDS011;20232;49.408;8.702;2024-03-02T19:46:03;10.23;;;6.30;;
6902;SDS011;20232;49.408;8.702;2024-03-02T19:48:29;8.57;;;6.43;;
6902;SDS011;20232;49.408;8.702;2024-03-02T19:50:55;8.43;;;6.87;;
6902;SDS011;20232;49.408;8.702;2024-03-02T19:53:21;8.23;;;6.47;;
6902;SDS011;20232;49.408;8.702;2024-03-02T19:55:46;7.93;;;5.80;;
6902;SDS011;20232;49.408;8.702;2024-03-02T19:58:12;9.97;;;7.87;;
6902;SDS011;20232;49.408;8.702;2024-03-02T20:00:37;11.77;;;7.93;;
6902;SDS011;20232;49.408;8.702;2024-03-02T20:03:03;9.77;;;7.27;;
6902;SDS011;20232;49.408;8.702;2024-03-02T20:05:28;12.30;;;7.97;;
6902;SDS011;20232;49.408;8.702;2024-03-02T20:07:54;10.43;;;7.57;;
6902;SDS011;20232;49.408;8.702;2024-03-02T20:10:19;10.50;;;7.83;;
6902;SDS011;20232;49.408;8.702;2024-03-02T20:12:45;10.60;;;7.63;;